Time;durP1;ratioP1;P1;durP2;ratioP2;P2;SDS_P1;SDS_P2;PMS_P1;PMS_P2;Temp;Humidity;BMP_temperature;BMP_pressure;BME280_temperature;BME280_humidity;BME280_pressure;Samples;Min_cycle;Max_cycle;Signal;HPM_P1;HPM_P2
2021/09/25 00:02:49;;;;;;;0.10;0.10;;;;;;;15.44;92.10;101315.19;10487624;28;20024;-66
2021/09/25 00:07:50;;;;;;;0.00;0.00;;;;;;;15.44;91.84;101309.84;10469008;28;20544;-66
2021/09/25 00:12:50;;;;;;;0.10;0.10;;;;;;;15.46;92.24;101315.88;10485757;28;20027;-67
2021/09/25 00:17:51;;;;;;;0.10;0.10;;;;;;;15.44;92.26;101312.53;10480434;28;20472;-70
2021/09/25 00:22:52;;;;;;;0.10;0.10;;;;;;;15.45;92.87;101314.22;10488840;28;20029;-67
2021/09/25 00:27:52;;;;;;;0.00;0.00;;;;;;;15.44;92.84;101312.53;10456856;28;20397;-69
2021/09/25 00:32:52;;;;;;;0.10;0.10;;;;;;;15.44;93.39;101296.41;10455632;28;20020;-69
2021/09/25 00:37:53;;;;;;;0.10;0.10;;;;;;;15.42;93.34;101304.66;10485889;28;20381;-69
2021/09/25 00:42:53;;;;;;;0.10;0.10;;;;;;;15.42;93.73;101311.84;10481084;28;20021;-69
2021/09/25 00:47:53;;;;;;;0.10;0.10;;;;;;;15.40;93.46;101301.31;10495155;28;20043;-69
2021/09/25 00:52:54;;;;;;;0.10;0.10;;;;;;;15.39;93.65;101303.16;10472723;28;20537;-69
2021/09/25 00:57:59;;;;;;;0.10;0.10;;;;;;;15.37;93.97;101305.19;10485973;28;20389;-69
2021/09/25 01:02:59;;;;;;;0.10;0.10;;;;;;;15.36;94.08;101303.53;10467479;28;20032;-69
2021/09/25 01:08:00;;;;;;;0.00;0.00;;;;;;;15.34;94.64;101308.22;10474683;28;20376;-69
2021/09/25 01:13:01;;;;;;;0.10;0.10;;;;;;;15.34;94.58;101313.59;10457683;28;20287;-69
2021/09/25 01:18:02;;;;;;;0.00;0.00;;;;;;;15.33;95.00;101321.81;10459258;28;20048;-69
2021/09/25 01:23:02;;;;;;;0.10;0.10;;;;;;;15.30;95.13;101319.50;10493877;28;20473;-69
2021/09/25 01:28:03;;;;;;;0.00;0.00;;;;;;;15.28;95.44;101321.53;10493691;28;20568;-69
2021/09/25 01:33:04;;;;;;;0.10;0.10;;;;;;;15.26;96.13;101319.00;10477192;28;20470;-72
2021/09/25 01:38:04;;;;;;;0.10;0.10;;;;;;;15.26;96.00;101321.69;10474220;28;20067;-71
2021/09/25 01:43:04;;;;;;;0.10;0.10;;;;;;;15.23;96.38;101324.75;10492539;28;20286;-71
2021/09/25 01:48:05;;;;;;;0.10;0.10;;;;;;;15.22;96.47;101332.97;10492038;28;20492;-71
2021/09/25 01:53:05;;;;;;;0.10;0.10;;;;;;;15.21;96.76;101334.81;10474591;28;20024;-70
2021/09/25 01:58:06;;;;;;;0.10;0.10;;;;;;;15.22;97.40;101330.31;10492427;28;20258;-69
2021/09/25 02:03:11;;;;;;;0.10;0.10;;;;;;;15.17;97.97;101326.28;10492288;28;20023;-69
2021/09/25 02:08:11;;;;;;;0.10;0.10;;;;;;;15.14;98.13;101325.81;10497670;28;20650;-68
2021/09/25 02:13:12;;;;;;;0.10;0.10;;;;;;;15.13;98.34;101341.06;10481515;28;20024;-69
2021/09/25 02:18:12;;;;;;;0.10;0.10;;;;;;;15.10;98.89;101340.59;10484945;28;20266;-68
2021/09/25 02:23:12;;;;;;;0.10;0.10;;;;;;;15.08;99.24;101343.44;10485501;28;20012;-68
2021/09/25 02:28:13;;;;;;;0.10;0.10;;;;;;;15.06;99.33;101342.78;10441391;22;20049;-65
2021/09/25 02:33:13;;;;;;;0.05;0.05;;;;;;;15.05;99.80;101349.16;10398911;28;20620;-66
2021/09/25 02:38:13;;;;;;;0.10;0.10;;;;;;;15.03;99.97;101345.81;10419883;28;20021;-66
2021/09/25 02:43:14;;;;;;;0.10;0.10;;;;;;;15.03;99.75;101347.66;10408626;28;20029;-66
2021/09/25 02:48:14;;;;;;;0.10;0.10;;;;;;;15.03;99.83;101347.66;10423387;28;20025;-66
2021/09/25 02:53:14;;;;;;;0.00;0.00;;;;;;;15.04;100.00;101352.00;10447694;28;20017;-65
2021/09/25 02:58:15;;;;;;;0.10;0.10;;;;;;;15.06;99.90;101355.34;10441407;28;20262;-65
2021/09/25 03:03:16;;;;;;;0.00;0.00;;;;;;;15.07;99.82;101349.84;10448895;28;20029;-65
2021/09/25 03:08:16;;;;;;;0.10;0.10;;;;;;;15.09;100.00;101358.53;10448580;28;20021;-65
2021/09/25 03:13:17;;;;;;;0.10;0.10;;;;;;;15.09;100.00;101358.53;10431351;28;20456;-66
2021/09/25 03:18:17;;;;;;;0.10;0.10;;;;;;;15.10;100.00;101360.22;10436711;28;20029;-66
2021/09/25 03:23:18;;;;;;;0.10;0.10;;;;;;;15.10;100.00;101351.34;10446367;28;20017;-66
2021/09/25 03:28:18;;;;;;;0.10;0.10;;;;;;;15.11;100.00;101353.00;10447941;28;20545;-65
2021/09/25 03:33:19;;;;;;;0.10;0.10;;;;;;;15.09;100.00;101353.16;10450384;28;20033;-66
2021/09/25 03:38:21;;;;;;;0.10;0.10;;;;;;;15.09;100.00;101363.06;10453859;28;20033;-66
2021/09/25 03:43:21;;;;;;;0.10;0.10;;;;;;;15.08;100.00;101361.41;10413267;28;20108;-67
2021/09/25 03:48:21;;;;;;;0.10;0.10;;;;;;;15.07;100.00;101359.72;10423915;28;20120;-66
2021/09/25 03:53:22;;;;;;;0.10;0.10;;;;;;;15.06;100.00;101366.09;10454130;28;20396;-67
2021/09/25 03:58:22;;;;;;;0.10;0.10;;;;;;;15.05;100.00;101372.47;10439210;28;20295;-66
2021/09/25 04:03:22;;;;;;;0.10;0.10;;;;;;;15.05;100.00;101367.94;10433824;28;20041;-66
2021/09/25 04:08:23;;;;;;;0.00;0.00;;;;;;;15.06;100.00;101372.28;10445251;28;20032;-67
2021/09/25 04:13:23;;;;;;;0.10;0.10;;;;;;;15.09;100.00;101373.78;10452119;28;20474;-67
2021/09/25 04:18:24;;;;;;;0.10;0.10;;;;;;;15.10;100.00;101373.63;10424301;28;20021;-66
2021/09/25 04:23:24;;;;;;;0.10;0.10;;;;;;;15.12;100.00;101384.16;10439822;28;20017;-66
2021/09/25 04:28:24;;;;;;;0.10;0.10;;;;;;;15.14;100.00;101382.16;10418627;28;20052;-67
2021/09/25 04:33:25;;;;;;;0.00;0.00;;;;;;;15.16;100.00;101375.59;10416656;28;20013;-66
2021/09/25 04:38:25;;;;;;;0.10;0.10;;;;;;;15.16;100.00;101377.47;10422454;28;20038;-67
2021/09/25 04:43:25;;;;;;;0.10;0.10;;;;;;;15.16;100.00;101372.09;10413137;28;20052;-67
2021/09/25 04:48:26;;;;;;;0.00;0.00;;;;;;;15.15;100.00;101384.69;10427346;28;20035;-67
2021/09/25 04:53:30;;;;;;;0.10;0.10;;;;;;;15.17;100.00;101390.69;10446265;28;20013;-66
2021/09/25 04:58:30;;;;;;;;;;;;;;;15.18;100.00;101388.81;10465671;28;20032;-67
2021/09/25 05:03:32;;;;;;;0.00;0.00;;;;;;;15.19;100.00;101403.94;10448154;28;19921;-67
2021/09/25 05:08:33;;;;;;;0.10;0.10;;;;;;;15.19;100.00;101387.84;10443946;28;20032;-66
2021/09/25 05:13:33;;;;;;;0.00;0.00;;;;;;;15.22;100.00;101392.03;10435196;28;20036;-67
2021/09/25 05:18:34;;;;;;;0.10;0.10;;;;;;;15.22;100.00;101392.84;10436625;28;20107;-67
2021/09/25 05:23:35;;;;;;;0.00;0.00;;;;;;;15.24;100.00;101385.47;10430650;28;20025;-67
2021/09/25 05:28:36;;;;;;;0.08;0.08;;;;;;;15.26;100.00;101404.06;10410958;28;20033;-67
2021/09/25 05:33:36;;;;;;;0.10;0.10;;;;;;;15.28;100.00;101407.41;10411929;28;20079;-67
2021/09/25 05:38:36;;;;;;;0.00;0.00;;;;;;;15.30;100.00;101411.59;10411182;28;20021;-66
2021/09/25 05:43:38;;;;;;;0.10;0.10;;;;;;;15.31;100.00;101407.91;10412894;28;20061;-66
2021/09/25 05:48:38;;;;;;;0.10;0.10;;;;;;;15.33;100.00;101421.97;10411446;28;20033;-66
2021/09/25 05:53:38;;;;;;;0.10;0.10;;;;;;;15.37;100.00;101422.47;10402194;28;20071;-66
2021/09/25 05:58:39;;;;;;;0.10;0.10;;;;;;;15.40;100.00;101412.19;10410741;28;20030;-66
2021/09/25 06:03:39;;;;;;;0.10;0.10;;;;;;;15.44;100.00;101431.47;10411958;28;20018;-66
2021/09/25 06:08:39;;;;;;;0.10;0.10;;;;;;;15.51;100.00;101437.00;10406231;28;20284;-67
2021/09/25 06:13:40;;;;;;;0.10;0.10;;;;;;;15.56;100.00;101439.97;10411839;28;20022;-66
2021/09/25 06:18:40;;;;;;;0.10;0.10;;;;;;;15.65;100.00;101441.59;10410273;28;20108;-66
2021/09/25 06:23:40;;;;;;;0.00;0.00;;;;;;;15.72;100.00;101450.63;10410984;28;20405;-66
2021/09/25 06:28:41;;;;;;;0.10;0.10;;;;;;;15.74;100.00;101459.38;10410370;28;20041;-67
2021/09/25 06:33:42;;;;;;;0.00;0.00;;;;;;;15.76;100.00;101454.63;10409965;28;20276;-66
2021/09/25 06:38:42;;;;;;;0.10;0.10;;;;;;;15.79;100.00;101456.97;10409623;28;20025;-67
2021/09/25 06:43:44;;;;;;;0.10;0.10;;;;;;;15.85;100.00;101450.03;10410388;28;20037;-67
2021/09/25 06:48:47;;;;;;;0.10;0.10;;;;;;;15.94;100.00;101464.25;10408193;28;20462;-67
2021/09/25 06:53:47;;;;;;;0.10;0.10;;;;;;;16.00;99.92;101461.72;10410122;28;20013;-66
2021/09/25 06:58:48;;;;;;;0.10;0.10;;;;;;;16.09;99.53;101478.59;10410178;28;20584;-66
2021/09/25 07:03:48;;;;;;;0.00;0.00;;;;;;;16.15;98.81;101469.81;10408489;28;20508;-67
2021/09/25 07:08:48;;;;;;;0.10;0.10;;;;;;;16.20;98.67;101474.63;10409375;28;20478;-67
2021/09/25 07:13:48;;;;;;;0.10;0.10;;;;;;;16.25;98.27;101483.00;10409695;28;20031;-67
2021/09/25 07:18:49;;;;;;;0.00;0.00;;;;;;;16.24;97.73;101487.56;10408684;28;20032;-67
2021/09/25 07:23:49;;;;;;;0.10;0.10;;;;;;;16.23;97.99;101480.50;10407975;28;20401;-67
2021/09/25 07:28:50;;;;;;;0.10;0.10;;;;;;;16.27;98.06;101486.34;10409018;28;20025;-67
2021/09/25 07:33:50;;;;;;;0.10;0.10;;;;;;;16.33;97.88;101498.25;10409436;28;20129;-67
2021/09/25 07:38:51;;;;;;;0.10;0.10;;;;;;;16.39;97.57;101497.50;10408398;28;20437;-67
2021/09/25 07:43:52;;;;;;;0.00;0.00;;;;;;;16.50;97.45;101510.53;10408238;28;20033;-67
2021/09/25 07:48:52;;;;;;;0.10;0.10;;;;;;;16.65;96.92;101516.78;10408883;28;20478;-67
2021/09/25 07:53:52;;;;;;;0.10;0.10;;;;;;;16.83;96.49;101511.06;10408278;28;20087;-67
2021/09/25 07:58:53;;;;;;;0.10;0.10;;;;;;;17.01;95.66;101518.78;10408694;28;20084;-67
2021/09/25 08:03:54;;;;;;;0.00;0.00;;;;;;;17.29;95.28;101528.94;10408639;28;20034;-66
2021/09/25 08:08:54;;;;;;;0.00;0.00;;;;;;;17.47;94.95;101531.22;10408627;28;20029;-67
2021/09/25 08:13:55;;;;;;;0.10;0.10;;;;;;;17.65;94.03;101540.56;10408590;28;20025;-67
2021/09/25 08:18:56;;;;;;;0.10;0.10;;;;;;;17.81;93.28;101544.13;10412031;28;20023;-68
2021/09/25 08:23:57;;;;;;;0.00;0.00;;;;;;;17.90;92.31;101553.75;10415794;28;20029;-68
2021/09/25 08:28:57;;;;;;;0.10;0.10;;;;;;;17.96;92.56;101550.31;10439529;22;20132;-69
2021/09/25 08:33:57;;;;;;;0.10;0.10;;;;;;;18.02;92.50;101571.09;10473024;28;20056;-70
2021/09/25 08:38:58;;;;;;;0.10;0.10;;;;;;;18.12;92.06;101564.56;10456378;28;20025;-69
2021/09/25 08:43:58;;;;;;;0.00;0.00;;;;;;;18.23;91.33;101574.84;10456285;28;20032;-70
2021/09/25 08:49:00;;;;;;;0.10;0.10;;;;;;;18.29;91.60;101584.88;10444530;28;20049;-70
2021/09/25 08:54:00;;;;;;;0.10;0.10;;;;;;;18.38;90.63;101583.72;10413577;28;20029;-70
2021/09/25 08:59:00;;;;;;;0.10;0.10;;;;;;;18.48;90.64;101591.50;10414689;28;20029;-69
2021/09/25 09:04:03;;;;;;;0.10;0.10;;;;;;;18.39;90.56;101601.59;10414546;28;20032;-70
2021/09/25 09:09:08;;;;;;;0.00;0.00;;;;;;;18.30;89.95;101597.34;10414571;28;20103;-69
2021/09/25 09:14:13;;;;;;;0.08;0.08;;;;;;;18.42;90.53;101603.91;10438275;28;20096;-69
2021/09/25 09:19:18;;;;;;;0.10;0.10;;;;;;;18.67;90.67;101600.81;10442331;28;20025;-69
2021/09/25 09:24:19;;;;;;;0.08;0.08;;;;;;;18.88;89.50;101589.19;10413927;28;20033;-69
2021/09/25 09:29:19;;;;;;;0.00;0.00;;;;;;;18.96;88.11;101592.56;10413646;28;20033;-69
2021/09/25 09:34:20;;;;;;;0.10;0.10;;;;;;;18.98;87.86;101595.91;10413580;28;20040;-69
2021/09/25 09:39:21;;;;;;;0.10;0.10;;;;;;;19.25;88.75;101596.09;10413354;28;20104;-68
2021/09/25 09:44:29;;;;;;;0.10;0.10;;;;;;;19.45;87.79;101601.63;10413275;28;20026;-70
2021/09/25 09:49:39;;;;;;;0.10;0.10;;;;;;;19.34;86.17;101603.00;10413252;28;20060;-69
2021/09/25 09:54:42;;;;;;;0.00;0.00;;;;;;;19.26;86.64;101615.84;10412917;28;20018;-69
2021/09/25 09:59:43;;;;;;;0.10;0.10;;;;;;;19.39;86.10;101611.34;10412706;28;20025;-70
2021/09/25 10:04:44;;;;;;;0.10;0.10;;;;;;;19.58;86.16;101611.69;10412463;28;20414;-69
2021/09/25 10:09:44;;;;;;;0.10;0.10;;;;;;;19.81;85.60;101616.81;10411757;28;20064;-69
2021/09/25 10:14:47;;;;;;;0.00;0.00;;;;;;;19.85;84.54;101618.09;10410295;28;20104;-69
2021/09/25 10:19:48;;;;;;;0.00;0.00;;;;;;;19.75;84.85;101631.13;10408768;28;20029;-69
2021/09/25 10:24:56;;;;;;;0.10;0.10;;;;;;;19.74;84.55;101629.47;10410100;28;20032;-70
2021/09/25 10:29:59;;;;;;;0.00;0.00;;;;;;;19.82;85.32;101632.00;10407757;28;20474;-70
2021/09/25 10:35:19;;;;;;;0.10;0.10;;;;;;;20.10;84.02;101629.19;10409890;28;20532;-69
2021/09/25 10:40:22;;;;;;;0.10;0.10;;;;;;;20.27;83.46;101640.50;10410253;28;20059;-68
2021/09/25 10:45:34;;;;;;;0.00;0.00;;;;;;;20.21;82.63;101630.47;10401985;28;20497;-68
2021/09/25 10:50:39;;;;;;;0.00;0.00;;;;;;;20.13;83.31;101632.34;10407059;28;20029;-68
2021/09/25 10:55:40;;;;;;;0.00;0.00;;;;;;;20.09;83.77;101635.66;10411097;28;20086;-68
2021/09/25 11:01:01;;;;;;;0.10;0.10;;;;;;;20.09;84.02;101632.94;10410212;28;20029;-68
2021/09/25 11:06:01;;;;;;;0.10;0.10;;;;;;;20.05;83.59;101639.81;10409397;28;20563;-68
2021/09/25 11:11:10;;;;;;;0.10;0.10;;;;;;;20.12;84.32;101640.66;10409600;28;20108;-68
2021/09/25 11:16:10;;;;;;;0.08;0.08;;;;;;;20.26;83.03;101636.97;10400669;28;20021;-68
2021/09/25 11:21:10;;;;;;;0.10;0.10;;;;;;;20.43;82.51;101637.44;10401813;28;20029;-68
2021/09/25 11:26:14;;;;;;;0.00;0.00;;;;;;;20.49;80.74;101641.19;10409011;28;20091;-68
2021/09/25 11:31:14;;;;;;;;;;;;;;;20.63;82.31;101647.50;10409625;28;20021;-69
2021/09/25 11:36:14;;;;;;;0.00;0.00;;;;;;;20.77;81.49;101649.19;10409114;28;20310;-70
2021/09/25 11:41:16;;;;;;;0.10;0.10;;;;;;;20.89;80.80;101646.69;10400708;28;20026;-68
2021/09/25 11:46:16;;;;;;;0.00;0.00;;;;;;;21.04;80.50;101650.03;10409013;28;20466;-70
2021/09/25 11:51:22;;;;;;;0.00;0.00;;;;;;;21.08;80.37;101647.72;10408735;28;20024;-68
2021/09/25 11:56:29;;;;;;;0.10;0.10;;;;;;;21.00;79.60;101643.34;10412435;28;20021;-68
2021/09/25 12:01:37;;;;;;;0.10;0.10;;;;;;;20.93;78.39;101642.50;10416151;28;20021;-67
2021/09/25 12:06:53;;;;;;;0.00;0.00;;;;;;;20.88;80.64;101635.00;10414314;28;20044;-68
2021/09/25 12:11:54;;;;;;;0.00;0.00;;;;;;;20.84;79.65;101644.59;10416382;28;20021;-67
2021/09/25 12:17:00;;;;;;;0.10;0.10;;;;;;;20.88;79.41;101643.13;10416083;28;20033;-68
2021/09/25 12:22:01;;;;;;;0.00;0.00;;;;;;;21.13;78.74;101648.75;10414983;28;20033;-67
2021/09/25 12:27:01;;;;;;;0.00;0.00;;;;;;;21.22;77.61;101647.50;10414440;28;20030;-68
2021/09/25 12:32:02;;;;;;;0.10;0.10;;;;;;;21.13;78.19;101637.94;10415093;28;20029;-67
2021/09/25 12:37:02;;;;;;;0.00;0.00;;;;;;;21.04;78.05;101641.91;10415380;28;20061;-68
2021/09/25 12:42:04;;;;;;;0.00;0.00;;;;;;;20.86;79.16;101641.69;10405979;28;20036;-69
2021/09/25 12:47:05;;;;;;;0.00;0.00;;;;;;;20.58;79.10;101639.97;10414981;28;20535;-67
2021/09/25 12:52:08;;;;;;;0.10;0.10;;;;;;;20.30;80.63;101637.38;10412871;28;20017;-67
2021/09/25 12:57:10;;;;;;;;;;;;;;;20.03;80.98;101644.56;10415071;28;20033;-68
2021/09/25 13:02:12;;;;;;;0.00;0.00;;;;;;;19.77;82.66;101654.22;10407809;28;20396;-69
2021/09/25 13:07:14;;;;;;;0.00;0.00;;;;;;;19.59;82.33;101656.59;10413964;28;20030;-69
2021/09/25 13:12:23;;;;;;;0.10;0.10;;;;;;;19.51;82.21;101659.44;10402938;28;20021;-67
2021/09/25 13:17:24;;;;;;;0.10;0.10;;;;;;;19.56;81.23;101657.00;10413253;28;20037;-68
2021/09/25 13:22:25;;;;;;;0.10;0.10;;;;;;;19.72;82.71;101661.25;10413450;28;20053;-68
2021/09/25 13:27:27;;;;;;;0.00;0.00;;;;;;;19.89;81.83;101657.19;10412890;28;20482;-67
2021/09/25 13:32:28;;;;;;;0.00;0.00;;;;;;;20.13;81.07;101650.44;10411669;28;20025;-68
2021/09/25 13:37:28;;;;;;;0.00;0.00;;;;;;;20.15;77.63;101645.66;10412582;28;20052;-67
2021/09/25 13:42:29;;;;;;;0.00;0.00;;;;;;;19.90;75.89;101650.78;10412107;28;20021;-69
2021/09/25 13:47:29;;;;;;;0.00;0.00;;;;;;;19.88;75.93;101655.53;10412224;28;20033;-68
2021/09/25 13:52:29;;;;;;;0.00;0.00;;;;;;;19.76;75.88;101659.84;10409422;28;20026;-68
2021/09/25 13:57:30;;;;;;;0.07;0.07;;;;;;;19.78;76.70;101653.22;10411659;28;20036;-68
2021/09/25 14:02:31;;;;;;;0.10;0.10;;;;;;;19.81;76.79;101655.50;10411875;28;20284;-68
2021/09/25 14:07:31;;;;;;;0.10;0.10;;;;;;;19.83;76.36;101664.22;10409699;28;20087;-67
2021/09/25 14:12:32;;;;;;;0.10;0.10;;;;;;;19.73;75.88;101660.25;10411663;28;20053;-67
2021/09/25 14:17:33;;;;;;;0.00;0.00;;;;;;;19.56;75.93;101668.63;10402010;28;20057;-69
2021/09/25 14:22:34;;;;;;;0.00;0.00;;;;;;;19.49;76.74;101670.47;10409695;28;20182;-69
2021/09/25 14:27:35;;;;;;;0.08;0.08;;;;;;;19.41;75.57;101660.63;10410603;28;20036;-69
2021/09/25 14:32:35;;;;;;;0.00;0.00;;;;;;;19.50;76.33;101668.59;10410917;28;20025;-67
2021/09/25 14:37:35;;;;;;;0.10;0.10;;;;;;;19.65;76.12;101664.75;10407775;28;20279;-67
2021/09/25 14:42:36;;;;;;;0.00;0.00;;;;;;;19.66;75.37;101673.69;10410518;28;20024;-67
2021/09/25 14:47:37;;;;;;;0.10;0.10;;;;;;;19.66;74.50;101671.00;10408364;28;20026;-67
2021/09/25 14:52:38;;;;;;;0.00;0.00;;;;;;;19.61;72.89;101673.44;10409770;28;20020;-69
2021/09/25 14:57:38;;;;;;;0.10;0.10;;;;;;;19.60;72.25;101671.75;10408594;28;20064;-68
2021/09/25 15:02:38;;;;;;;0.00;0.00;;;;;;;19.54;72.50;101673.38;10408577;28;20041;-68
2021/09/25 15:07:39;;;;;;;0.00;0.00;;;;;;;19.46;72.68;101673.56;10409830;28;20040;-68
2021/09/25 15:12:39;;;;;;;0.10;0.10;;;;;;;19.34;73.27;101675.13;10403055;28;20018;-67
2021/09/25 15:17:39;;;;;;;0.00;0.00;;;;;;;19.32;73.84;101672.63;10403733;28;20066;-67
2021/09/25 15:22:40;;;;;;;0.00;0.00;;;;;;;19.31;73.48;101668.22;10408187;28;20299;-67
2021/09/25 15:27:40;;;;;;;0.00;0.00;;;;;;;19.19;71.93;101659.84;10413292;28;20406;-68
2021/09/25 15:32:42;;;;;;;0.00;0.00;;;;;;;19.04;72.68;101664.50;10417739;28;20260;-67
2021/09/25 15:37:42;;;;;;;0.10;0.10;;;;;;;18.82;72.08;101676.31;10417528;28;20028;-70
2021/09/25 15:42:43;;;;;;;0.00;0.00;;;;;;;18.70;73.14;101681.38;10417148;28;20033;-70
2021/09/25 15:47:44;;;;;;;0.00;0.00;;;;;;;18.59;73.39;101687.25;10416255;28;20562;-67
2021/09/25 15:52:44;;;;;;;0.10;0.10;;;;;;;18.45;74.52;101694.41;10414062;28;20124;-67
2021/09/25 15:57:45;;;;;;;0.00;0.00;;;;;;;18.29;75.08;101703.53;10416860;28;20033;-67
2021/09/25 16:02:45;;;;;;;0.00;0.00;;;;;;;18.11;74.62;101712.03;10417225;28;20397;-67
2021/09/25 16:07:45;;;;;;;0.10;0.10;;;;;;;17.94;76.04;101695.19;10416428;28;20080;-67
2021/09/25 16:12:46;;;;;;;0.10;0.10;;;;;;;17.79;77.36;101708.69;10415409;28;20028;-67
2021/09/25 16:17:46;;;;;;;0.10;0.10;;;;;;;17.66;77.72;101705.78;10409914;28;20057;-68
2021/09/25 16:22:47;;;;;;;0.00;0.00;;;;;;;17.55;78.07;101707.06;10416073;28;20036;-67
2021/09/25 16:27:47;;;;;;;0.00;0.00;;;;;;;17.50;78.79;101698.69;10414103;28;20037;-67
2021/09/25 16:32:48;;;;;;;0.00;0.00;;;;;;;17.44;79.29;101707.50;10397708;28;20033;-68
2021/09/25 16:37:48;;;;;;;0.00;0.00;;;;;;;17.40;79.74;101714.28;10414946;28;20481;-67
2021/09/25 16:42:49;;;;;;;0.00;0.00;;;;;;;17.38;78.94;101711.75;10416186;28;20029;-67
2021/09/25 16:47:49;;;;;;;0.00;0.00;;;;;;;17.36;78.85;101713.78;10396257;28;20026;-67
2021/09/25 16:52:49;;;;;;;0.10;0.10;;;;;;;17.31;79.33;101715.38;10375228;28;20017;-67
2021/09/25 16:57:50;;;;;;;0.00;0.00;;;;;;;17.29;79.43;101725.47;10374191;28;20423;-68
2021/09/25 17:02:50;;;;;;;0.10;0.10;;;;;;;17.24;79.88;101723.31;10397175;28;20113;-67
2021/09/25 17:07:51;;;;;;;0.00;0.00;;;;;;;17.20;80.87;101720.16;10389713;28;20030;-67
2021/09/25 17:12:53;;;;;;;0.10;0.10;;;;;;;17.16;80.97;101729.63;10373089;28;20022;-67
2021/09/25 17:17:53;;;;;;;0.10;0.10;;;;;;;17.11;80.87;101732.03;10372629;28;20026;-67
2021/09/25 17:23:00;;;;;;;0.10;0.10;;;;;;;17.05;80.99;101732.75;10371282;28;20093;-67
2021/09/25 17:28:01;;;;;;;0.08;0.08;;;;;;;17.01;82.16;101736.78;10385308;28;20308;-68
2021/09/25 17:33:02;;;;;;;0.10;0.10;;;;;;;16.97;82.64;101730.94;10413131;28;20045;-67
2021/09/25 17:38:04;;;;;;;0.10;0.10;;;;;;;16.93;82.89;101742.25;10413231;28;20101;-67
2021/09/25 17:43:06;;;;;;;0.10;0.10;;;;;;;16.90;83.40;101748.84;10413023;28;20505;-68
2021/09/25 17:48:06;;;;;;;0.10;0.10;;;;;;;16.87;83.93;101740.25;10412260;28;20028;-68
2021/09/25 17:53:07;;;;;;;0.03;0.03;;;;;;;16.83;84.03;101738.94;10404175;28;20017;-68
2021/09/25 17:58:07;;;;;;;0.10;0.10;;;;;;;16.79;83.44;101737.63;10409797;28;20053;-68
2021/09/25 18:03:08;;;;;;;0.00;0.00;;;;;;;16.78;83.82;101722.50;10408469;28;20109;-68
2021/09/25 18:08:08;;;;;;;0.00;0.00;;;;;;;16.75;84.92;101740.66;10411602;28;20049;-68
2021/09/25 18:13:09;;;;;;;0.00;0.00;;;;;;;16.72;86.17;101742.84;10411494;28;20390;-67
2021/09/25 18:18:09;;;;;;;0.00;0.00;;;;;;;16.67;87.59;101747.94;10410100;28;20445;-67
2021/09/25 18:23:10;;;;;;;0.00;0.00;;;;;;;16.63;88.08;101754.66;10410418;28;20541;-68
2021/09/25 18:28:11;;;;;;;0.05;0.05;;;;;;;16.57;89.20;101750.81;10410016;28;20489;-67
2021/09/25 18:33:12;;;;;;;0.10;0.10;;;;;;;16.56;88.99;101759.09;10410416;28;20029;-67
2021/09/25 18:38:13;;;;;;;0.00;0.00;;;;;;;16.52;88.34;101755.88;10409531;28;20581;-67
2021/09/25 18:43:13;;;;;;;0.07;0.07;;;;;;;16.48;89.55;101751.88;10410031;28;20017;-67
2021/09/25 18:48:20;;;;;;;0.10;0.10;;;;;;;16.39;90.75;101759.16;10409142;28;20021;-68
2021/09/25 18:53:22;;;;;;;0.10;0.10;;;;;;;16.32;91.80;101766.25;10425157;28;20053;-68
2021/09/25 18:58:22;;;;;;;0.10;0.10;;;;;;;16.25;92.31;101776.84;10425886;28;20021;-68
2021/09/25 19:03:22;;;;;;;0.10;0.10;;;;;;;16.20;93.13;101787.28;10418333;28;20032;-67
2021/09/25 19:08:23;;;;;;;0.10;0.10;;;;;;;16.19;93.07;101790.97;10407802;28;20753;-68
2021/09/25 19:13:25;;;;;;;0.00;0.00;;;;;;;16.18;92.62;101792.00;10421982;28;20025;-67
2021/09/25 19:18:26;;;;;;;0.00;0.00;;;;;;;16.18;92.91;101808.13;10422826;28;20029;-67
2021/09/25 19:23:26;;;;;;;0.00;0.00;;;;;;;16.18;92.97;101800.06;10437786;28;20028;-67
2021/09/25 19:28:26;;;;;;;0.10;0.10;;;;;;;16.18;91.93;101800.06;10445288;28;20092;-68
2021/09/25 19:33:27;;;;;;;0.10;0.10;;;;;;;16.19;91.67;101811.66;10415371;28;20029;-67
2021/09/25 19:38:29;;;;;;;0.10;0.10;;;;;;;16.19;91.76;101812.47;10417791;28;20486;-69
2021/09/25 19:43:30;;;;;;;0.00;0.00;;;;;;;16.19;91.82;101811.66;10428318;28;20157;-67
2021/09/25 19:48:34;;;;;;;0.10;0.10;;;;;;;16.17;93.48;101814.50;10434932;28;20108;-68
2021/09/25 19:53:34;;;;;;;0.08;0.08;;;;;;;16.11;93.35;101819.72;10416631;28;20024;-69
2021/09/25 19:58:35;;;;;;;0.10;0.10;;;;;;;16.07;93.45;101813.84;10429024;28;20386;-70
2021/09/25 20:03:36;;;;;;;0.05;0.05;;;;;;;16.06;93.17;101815.72;10410662;28;20021;-68
2021/09/25 20:08:36;;;;;;;0.10;0.10;;;;;;;16.07;93.31;101816.53;10410490;28;20028;-67
2021/09/25 20:13:38;;;;;;;0.10;0.10;;;;;;;16.07;93.45;101811.16;10447325;28;20033;-67
2021/09/25 20:18:39;;;;;;;0.10;0.10;;;;;;;16.05;94.51;101816.69;10419330;28;20021;-67
2021/09/25 20:23:39;;;;;;;0.10;0.10;;;;;;;16.02;95.01;101818.91;10431596;28;20021;-68
2021/09/25 20:28:40;;;;;;;0.10;0.10;;;;;;;16.02;95.55;101813.53;10413817;28;20758;-68
2021/09/25 20:33:40;;;;;;;0.10;0.10;;;;;;;16.01;95.74;101810.00;10420494;28;20013;-67
2021/09/25 20:38:41;;;;;;;0.10;0.10;;;;;;;16.00;93.52;101820.94;10440948;28;20024;-68
2021/09/25 20:43:41;;;;;;;0.00;0.00;;;;;;;16.00;93.05;101812.88;10420136;28;20839;-67
2021/09/25 20:48:42;;;;;;;0.10;0.10;;;;;;;16.01;92.07;101826.13;10422883;28;20389;-68
2021/09/25 20:53:42;;;;;;;0.10;0.10;;;;;;;16.02;93.76;101821.59;10442095;28;20021;-68
2021/09/25 20:58:43;;;;;;;0.10;0.10;;;;;;;16.00;94.32;101819.09;10432864;28;20048;-68
2021/09/25 21:03:44;;;;;;;0.10;0.10;;;;;;;15.99;94.70;101816.56;10433821;28;20029;-68
2021/09/25 21:08:44;;;;;;;0.10;0.10;;;;;;;15.95;93.82;101813.38;10430885;28;20495;-67
2021/09/25 21:13:45;;;;;;;0.10;0.10;;;;;;;15.94;93.92;101819.78;10432213;28;20017;-67
2021/09/25 21:18:45;;;;;;;0.10;0.10;;;;;;;15.93;93.84;101834.19;10429906;28;20029;-67
2021/09/25 21:23:47;;;;;;;0.10;0.10;;;;;;;15.92;92.69;101834.38;10439062;28;20033;-68
2021/09/25 21:28:47;;;;;;;0.00;0.00;;;;;;;15.93;92.49;101830.69;10459919;28;20021;-68
2021/09/25 21:33:47;;;;;;;0.10;0.10;;;;;;;15.92;93.06;101824.47;10415641;28;20488;-68
2021/09/25 21:38:48;;;;;;;0.10;0.10;;;;;;;15.87;94.43;101818.75;10428126;28;20047;-68
2021/09/25 21:43:48;;;;;;;0.10;0.10;;;;;;;15.80;95.69;101823.97;10422279;28;20030;-68
2021/09/25 21:48:49;;;;;;;0.10;0.10;;;;;;;15.74;95.22;101827.34;10427532;28;20027;-67
2021/09/25 21:53:49;;;;;;;0.10;0.10;;;;;;;15.71;95.77;101816.09;10434167;28;20123;-67
2021/09/25 21:58:51;;;;;;;0.10;0.10;;;;;;;15.66;95.36;101823.78;10439207;28;20025;-68
2021/09/25 22:03:52;;;;;;;0.00;0.00;;;;;;;15.63;94.86;101827.66;10424214;28;20078;-67
2021/09/25 22:08:53;;;;;;;0.00;0.00;;;;;;;15.65;93.75;101825.63;10441281;28;20288;-67
2021/09/25 22:13:53;;;;;;;0.10;0.10;;;;;;;15.67;93.92;101820.91;10429870;28;20092;-67
2021/09/25 22:18:53;;;;;;;0.10;0.10;;;;;;;15.66;94.27;101830.00;10423218;28;20550;-69
2021/09/25 22:23:55;;;;;;;0.00;0.00;;;;;;;15.63;94.03;101828.47;10415661;28;20032;-69
2021/09/25 22:28:55;;;;;;;0.10;0.10;;;;;;;15.62;94.22;101821.44;10445083;28;20089;-67
2021/09/25 22:33:56;;;;;;;0.00;0.00;;;;;;;15.61;94.17;101821.59;10411664;28;20356;-67
2021/09/25 22:38:56;;;;;;;0.03;0.03;;;;;;;15.57;94.26;101826.47;10425298;28;20258;-67
2021/09/25 22:43:57;;;;;;;0.10;0.10;;;;;;;15.54;94.46;101817.91;10419394;28;20021;-67
2021/09/25 22:48:59;;;;;;;0.10;0.10;;;;;;;15.50;94.48;101822.75;10420153;28;20022;-68
2021/09/25 22:53:59;;;;;;;0.10;0.10;;;;;;;15.44;94.65;101822.59;10421708;28;20029;-68
2021/09/25 22:59:00;;;;;;;0.10;0.10;;;;;;;15.43;94.65;101821.75;10433625;28;20084;-67
2021/09/25 23:04:00;;;;;;;0.10;0.10;;;;;;;15.44;94.69;101817.22;10437183;28;20018;-68